createdAt,value
2023-04-21T00:01:37.296Z,87062.13
2023-04-21T00:04:04.781Z,87063.63
2023-04-21T00:06:32.110Z,87059.50
2023-04-21T00:08:59.372Z,87055.78
2023-04-21T00:11:26.634Z,87053.91
2023-04-21T00:13:53.898Z,87050.53
2023-04-21T00:16:21.517Z,87049.06
2023-04-21T00:18:48.840Z,87045.66
2023-04-21T00:21:16.187Z,87052.44
2023-04-21T00:23:43.437Z,87051.63
2023-04-21T00:26:10.791Z,87049.81
2023-04-21T00:28:38.063Z,87039.66
2023-04-21T00:31:05.511Z,87042.66
2023-04-21T00:33:32.698Z,87039.66
2023-04-21T00:35:59.926Z,87043.41
2023-04-21T00:38:27.611Z,87041.56
2023-04-21T00:40:54.888Z,87041.13
2023-04-21T00:43:22.167Z,87042.97
2023-04-21T00:45:49.529Z,87044.81
2023-04-21T00:48:16.824Z,87049.69
2023-04-21T00:50:45.540Z,87047.84
2023-04-21T00:53:15.756Z,87042.19
2023-04-21T00:55:43.170Z,87043.56
2023-04-21T00:58:10.524Z,87038.69
2023-04-21T01:00:39.079Z,87043.19
2023-04-21T01:03:07.367Z,87045.84
2023-04-21T01:05:34.898Z,87043.19
2023-04-21T01:08:02.774Z,87045.47
2023-04-21T01:10:30.095Z,87049.97
2023-04-21T01:12:57.458Z,87049.59
2023-04-21T01:15:24.904Z,87054.47
2023-04-21T01:17:52.257Z,87051.50
2023-04-21T01:20:19.544Z,87050.75
2023-04-21T01:22:46.927Z,87050.00
2023-04-21T01:25:14.347Z,87053.78
2023-04-21T01:27:41.857Z,87046.97
2023-04-21T01:30:09.801Z,87056.72
2023-04-21T01:32:37.303Z,87055.25
2023-04-21T01:35:05.117Z,87051.50
2023-04-21T01:37:34.209Z,87051.06
2023-04-21T01:40:08.451Z,87055.84
2023-04-21T01:42:39.768Z,87056.25
2023-04-21T01:45:08.018Z,87053.66
2023-04-21T01:47:35.552Z,87063.00
2023-04-21T01:50:03.256Z,87054.38
2023-04-21T01:52:30.506Z,87051.75
2023-04-21T01:54:57.886Z,87037.50
2023-04-21T01:57:25.224Z,87040.88
2023-04-21T01:59:52.458Z,87045.41
2023-04-21T02:02:19.911Z,87050.25
2023-04-21T02:04:47.299Z,87046.06
2023-04-21T02:07:14.563Z,87046.03
2023-04-21T02:09:42.036Z,87048.66
2023-04-21T02:12:10.180Z,87043.75
2023-04-21T02:14:38.581Z,87041.13
2023-04-21T02:17:06.103Z,87043.41
2023-04-21T02:19:33.619Z,87049.78
2023-04-21T02:22:01.057Z,87043.03
2023-04-21T02:24:28.287Z,87044.13
2023-04-21T02:26:55.490Z,87041.13
2023-04-21T02:29:22.983Z,87035.50
2023-04-21T02:32:00.702Z,87039.25
2023-04-21T02:34:30.749Z,87041.44
2023-04-21T02:36:58.064Z,87041.84
2023-04-21T02:39:25.679Z,87049.28
2023-04-21T02:41:53.035Z,87050.38
2023-04-21T02:44:20.288Z,87047.38
2023-04-21T02:46:47.621Z,87047.41
2023-04-21T02:49:14.919Z,87052.59
2023-04-21T02:51:42.276Z,87042.84
2023-04-21T02:54:09.645Z,87039.16
2023-04-21T02:56:37.070Z,87045.81
2023-04-21T02:59:04.599Z,87040.97
2023-04-21T03:01:31.881Z,87035.72
2023-04-21T03:03:59.257Z,87042.88
2023-04-21T03:06:26.541Z,87042.13
2023-04-21T03:08:53.792Z,87046.63
2023-04-21T03:11:21.107Z,87042.88
2023-04-21T03:13:48.333Z,87043.25
2023-04-21T03:16:15.657Z,87047.38
2023-04-21T03:18:43.024Z,87046.25
2023-04-21T03:21:10.461Z,87042.88
2023-04-21T03:23:37.958Z,87042.09
2023-04-21T03:26:09.132Z,87046.56
2023-04-21T03:28:36.579Z,87041.66
2023-04-21T03:31:03.819Z,87040.88
2023-04-21T03:33:31.074Z,87049.16
2023-04-21T03:35:58.947Z,87049.91
2023-04-21T03:38:28.664Z,87054.75
2023-04-21T03:40:55.981Z,87053.25
2023-04-21T03:43:23.265Z,87061.44
2023-04-21T03:45:50.594Z,87055.47
2023-04-21T03:48:18.112Z,87050.97
2023-04-21T03:50:45.356Z,87056.22
2023-04-21T03:53:12.614Z,87056.22
2023-04-21T03:55:39.908Z,87053.19
2023-04-21T03:58:07.206Z,87050.56
2023-04-21T04:00:34.490Z,87048.69
2023-04-21T04:03:02.051Z,87052.03
2023-04-21T04:05:29.617Z,87052.00
2023-04-21T04:07:56.838Z,87056.56
2023-04-21T04:10:24.508Z,87049.03
2023-04-21T04:12:51.691Z,87053.56
2023-04-21T04:15:19.011Z,87061.03
2023-04-21T04:17:46.307Z,87059.56
2023-04-21T04:20:13.637Z,87058.75
2023-04-21T04:22:41.184Z,87061.38
2023-04-21T04:25:08.648Z,87064.75
2023-04-21T04:27:35.923Z,87067.72
2023-04-21T04:30:04.339Z,87076.28
2023-04-21T04:32:32.669Z,87071.44
2023-04-21T04:35:00.188Z,87070.34
2023-04-21T04:37:27.806Z,87074.06
2023-04-21T04:39:55.092Z,87076.34
2023-04-21T04:42:22.284Z,87077.84
2023-04-21T04:44:53.365Z,87081.63
2023-04-21T04:47:20.999Z,87083.44
2023-04-21T04:49:48.294Z,87087.22
2023-04-21T04:52:15.480Z,87082.78
2023-04-21T04:54:42.752Z,87086.16
2023-04-21T04:57:09.986Z,87083.16
2023-04-21T04:59:37.394Z,87085.00
2023-04-21T05:02:04.850Z,87088.38
2023-04-21T05:04:34.360Z,87087.63
2023-04-21T05:07:02.023Z,87091.34
2023-04-21T05:09:29.298Z,87089.88
2023-04-21T05:11:56.682Z,87095.50
2023-04-21T05:14:23.953Z,87094.41
2023-04-21T05:16:51.283Z,87099.28
2023-04-21T05:19:18.939Z,87099.69
2023-04-21T05:21:46.242Z,87099.34
2023-04-21T05:24:13.632Z,87101.25
2023-04-21T05:26:41.033Z,87099.75
2023-04-21T05:29:08.487Z,87097.88
2023-04-21T05:31:35.727Z,87097.91
2023-04-21T05:34:03.044Z,87103.53
2023-04-21T05:36:30.261Z,87107.28
2023-04-21T05:38:57.536Z,87107.94
2023-04-21T05:41:24.781Z,87108.38
2023-04-21T05:43:54.265Z,87113.25
2023-04-21T05:46:29.118Z,87111.78
2023-04-21T05:49:02.182Z,87110.31
2023-04-21T05:51:30.131Z,87115.97
2023-04-21T05:53:57.753Z,87120.53
2023-04-21T05:56:24.983Z,87116.81
2023-04-21T05:58:52.292Z,87106.72
2023-04-21T06:01:19.857Z,87102.66
2023-04-21T06:03:47.271Z,87113.91
2023-04-21T06:06:14.594Z,87111.69
2023-04-21T06:08:42.117Z,87106.84
2023-04-21T06:11:09.731Z,87109.91
2023-04-21T06:13:38.544Z,87112.56
2023-04-21T06:16:06.778Z,87102.16
2023-04-21T06:18:37.261Z,87108.59
2023-04-21T06:21:05.068Z,87106.69
2023-04-21T06:23:32.343Z,87106.69
2023-04-21T06:26:05.212Z,87105.25
2023-04-21T06:28:34.564Z,87108.22
2023-04-21T06:31:04.798Z,87110.09
2023-04-21T06:33:33.722Z,87110.47
2023-04-21T06:36:01.084Z,87112.41
2023-04-21T06:38:28.524Z,87112.84
2023-04-21T06:40:56.055Z,87110.16
2023-04-21T06:43:23.351Z,87110.59
2023-04-21T06:45:50.582Z,87107.63
2023-04-21T06:48:17.884Z,87112.16
2023-04-21T06:50:45.208Z,87108.47
2023-04-21T06:53:12.670Z,87114.88
2023-04-21T06:55:40.037Z,87110.41
2023-04-21T06:58:07.353Z,87114.16
2023-04-21T07:00:34.978Z,87111.53
2023-04-21T07:03:02.441Z,87112.72
2023-04-21T07:05:30.036Z,87111.25
2023-04-21T07:07:57.259Z,87114.31
2023-04-21T07:10:24.749Z,87124.13
2023-04-21T07:12:52.183Z,87117.38
2023-04-21T07:15:19.885Z,87111.00
2023-04-21T07:17:47.266Z,87117.78
2023-04-21T07:20:15.127Z,87126.44
2023-04-21T07:22:42.431Z,87122.00
2023-04-21T07:25:10.881Z,87123.13
2023-04-21T07:27:39.066Z,87124.66
2023-04-21T07:30:07.656Z,87119.78
2023-04-21T07:32:35.233Z,87122.84
2023-04-21T07:35:02.679Z,87121.34
2023-04-21T07:37:29.925Z,87119.91
2023-04-21T07:39:57.297Z,87128.59
2023-04-21T07:42:24.600Z,87121.50
2023-04-21T07:44:52.039Z,87128.28
2023-04-21T07:47:19.475Z,87128.31
2023-04-21T07:49:46.819Z,87126.03
2023-04-21T07:52:14.085Z,87125.38
2023-04-21T07:54:41.281Z,87131.34
2023-04-21T07:57:08.548Z,87133.25
2023-04-21T07:59:35.805Z,87128.75
2023-04-21T08:02:03.268Z,87128.03
2023-04-21T08:04:30.882Z,87138.22
2023-04-21T08:06:59.108Z,87140.84
2023-04-21T08:09:27.336Z,87131.88
2023-04-21T08:11:54.773Z,87135.59
2023-04-21T08:14:22.357Z,87134.91
2023-04-21T08:16:49.977Z,87143.53
2023-04-21T08:19:17.522Z,87140.94
2023-04-21T08:21:45.216Z,87136.78
2023-04-21T08:24:12.654Z,87145.06
2023-04-21T08:26:40.114Z,87144.28
2023-04-21T08:29:07.712Z,87142.38
2023-04-21T08:31:35.003Z,87151.03
2023-04-21T08:34:03.123Z,87144.25
2023-04-21T08:36:30.910Z,87150.66
2023-04-21T08:38:59.183Z,87153.28
2023-04-21T08:41:27.163Z,87149.13
2023-04-21T08:43:54.452Z,87154.34
2023-04-21T08:46:23.465Z,87155.91
2023-04-21T08:48:52.256Z,87160.81
2023-04-21T08:51:27.904Z,87159.34
2023-04-21T08:53:55.973Z,87166.88
2023-04-21T08:56:25.973Z,87160.13
2023-04-21T08:58:54.216Z,87163.88
2023-04-21T09:01:21.658Z,87164.25
2023-04-21T09:03:49.465Z,87163.94
2023-04-21T09:06:17.106Z,87164.41
2023-04-21T09:08:54.911Z,87166.31
2023-04-21T09:11:22.507Z,87164.06
2023-04-21T09:13:49.742Z,87168.22
2023-04-21T09:16:22.561Z,87167.84
2023-04-21T09:18:50.815Z,87171.63
2023-04-21T09:21:20.193Z,87172.78
2023-04-21T09:23:53.649Z,87179.16
2023-04-21T09:26:23.408Z,87175.78
2023-04-21T09:28:52.779Z,87172.78
2023-04-21T09:31:43.550Z,87175.41
2023-04-21T09:34:26.876Z,87174.28
2023-04-21T09:37:05.239Z,87171.31
2023-04-21T09:39:46.142Z,87179.25
2023-04-21T09:42:17.287Z,87176.25
2023-04-21T09:44:52.499Z,87172.88
2023-04-21T09:47:30.313Z,87171.78
2023-04-21T09:49:59.277Z,87169.13
2023-04-21T09:52:30.877Z,87178.50
2023-04-21T09:55:02.452Z,87168.72
2023-04-21T09:57:32.816Z,87167.22
2023-04-21T10:00:07.544Z,87170.19
2023-04-21T10:02:42.331Z,87178.47
2023-04-21T10:05:11.652Z,87173.97
2023-04-21T10:07:39.870Z,87174.34
2023-04-21T10:10:28.274Z,87174.72
2023-04-21T10:12:56.065Z,87175.47
2023-04-21T10:15:49.658Z,87175.50
2023-04-21T10:18:19.596Z,87171.69
2023-04-21T10:20:58.207Z,87176.22
2023-04-21T10:23:36.653Z,87168.31
2023-04-21T10:26:24.522Z,87171.34
2023-04-21T10:29:01.214Z,87181.06
2023-04-21T10:31:35.520Z,87172.47
2023-04-21T10:34:06.902Z,87175.50
2023-04-21T10:37:03.978Z,87168.78
2023-04-21T10:39:55.393Z,87169.94
2023-04-21T10:42:39.798Z,87171.84
2023-04-21T10:45:22.249Z,87170.69
2023-04-21T10:47:54.426Z,87167.31
2023-04-21T10:50:25.445Z,87168.09
2023-04-21T10:52:58.187Z,87174.50
2023-04-21T10:55:30.225Z,87165.81
2023-04-21T10:58:01.401Z,87184.28
2023-04-21T11:00:28.854Z,87175.22
2023-04-21T11:03:05.429Z,87171.81
2023-04-21T11:05:42.319Z,87169.56
2023-04-21T11:08:14.256Z,87171.03
2023-04-21T11:10:50.477Z,87178.97
2023-04-21T11:13:20.664Z,87174.44
2023-04-21T11:16:05.620Z,87182.34
2023-04-21T11:18:44.988Z,87178.91
2023-04-21T11:21:18.635Z,87176.56
2023-04-21T11:23:57.893Z,87176.19
2023-04-21T11:26:37.125Z,87182.16
2023-04-21T11:29:09.628Z,87185.50
2023-04-21T11:31:40.854Z,87187.00
2023-04-21T11:34:09.494Z,87191.44
2023-04-21T11:36:44.725Z,87192.56
2023-04-21T11:39:20.171Z,87197.00
2023-04-21T11:41:52.327Z,87190.13
2023-04-21T11:44:38.907Z,87197.59
2023-04-21T11:47:24.906Z,87202.84
2023-04-21T11:50:02.299Z,87200.53
2023-04-21T11:52:45.841Z,87191.50
2023-04-21T11:55:16.458Z,87198.69
2023-04-21T11:57:46.747Z,87195.34
2023-04-21T12:00:23.564Z,87196.50
2023-04-21T12:02:57.727Z,87189.75
2023-04-21T12:05:35.172Z,87195.44
2023-04-21T12:08:02.707Z,87194.72
2023-04-21T12:10:31.069Z,87199.25
2023-04-21T12:13:01.380Z,87197.75
2023-04-21T12:15:32.495Z,87201.13
2023-04-21T12:18:02.146Z,87198.53
2023-04-21T12:20:30.578Z,87205.28
2023-04-21T12:23:04.309Z,87206.81
2023-04-21T12:25:35.833Z,87205.72
2023-04-21T12:28:03.478Z,87205.00
2023-04-21T12:30:30.811Z,87206.94
2023-04-21T12:32:58.352Z,87205.06
2023-04-21T12:35:26.707Z,87203.28
2023-04-21T12:37:54.211Z,87210.16
2023-04-21T12:40:21.629Z,87200.06
2023-04-21T12:42:48.830Z,87203.88
2023-04-21T12:45:16.183Z,87195.25
2023-04-21T12:47:45.545Z,87205.81
2023-04-21T12:50:14.418Z,87196.75
2023-04-21T12:52:44.250Z,87193.97
2023-04-21T12:55:11.978Z,87191.50
2023-04-21T12:57:39.521Z,87183.81
2023-04-21T13:00:07.817Z,87185.25
2023-04-21T13:02:35.291Z,87179.13
2023-04-21T13:05:03.073Z,87176.28
2023-04-21T13:07:30.583Z,87167.78
2023-04-21T13:09:58.317Z,87171.88
2023-04-21T13:12:25.907Z,87165.75
2023-04-21T13:14:56.079Z,87169.19
2023-04-21T13:17:23.549Z,87171.94
2023-04-21T13:19:51.236Z,87172.81
2023-04-21T13:22:18.895Z,87169.97
2023-04-21T13:24:46.658Z,87159.13
2023-04-21T13:27:14.064Z,87159.16
2023-04-21T13:29:41.643Z,87161.06
2023-04-21T13:32:09.335Z,87160.00
2023-04-21T13:34:36.784Z,87150.63
2023-04-21T13:37:04.370Z,87159.34
2023-04-21T13:39:32.017Z,87157.50
2023-04-21T13:41:59.693Z,87150.38
2023-04-21T13:44:27.048Z,87153.75
2023-04-21T13:46:54.734Z,87153.38
2023-04-21T13:49:22.163Z,87138.28
2023-04-21T13:51:49.389Z,87143.09
2023-04-21T13:54:16.646Z,87137.22
2023-04-21T13:56:44.142Z,87128.72
2023-04-21T13:59:11.750Z,87131.28
2023-04-21T14:01:39.128Z,87126.38
2023-04-21T14:04:06.637Z,87113.03
2023-04-21T14:06:34.537Z,87115.25
2023-04-21T14:09:01.894Z,87119.59
2023-04-21T14:11:29.373Z,87111.75
2023-04-21T14:14:08.922Z,87115.69
2023-04-21T14:16:37.532Z,87111.75
2023-04-21T14:19:05.046Z,87105.88
2023-04-21T14:21:32.366Z,87107.84
2023-04-21T14:23:59.638Z,87098.78
2023-04-21T14:26:27.140Z,87101.13
2023-04-21T14:28:54.571Z,87098.41
2023-04-21T14:31:22.512Z,87101.50
2023-04-21T14:33:50.090Z,87096.78
2023-04-21T14:36:17.584Z,87086.66
2023-04-21T14:38:46.609Z,87089.53
2023-04-21T14:41:14.118Z,87096.81
2023-04-21T14:43:41.413Z,87093.22
2023-04-21T14:46:09.128Z,87092.13
2023-04-21T14:48:36.450Z,87087.34
2023-04-21T14:51:03.866Z,87083.25
2023-04-21T14:53:31.201Z,87082.25
2023-04-21T14:55:58.461Z,87085.34
2023-04-21T14:58:25.772Z,87074.81
2023-04-21T15:00:53.469Z,87075.09
2023-04-21T15:03:20.977Z,87067.22
2023-04-21T15:05:48.748Z,87061.03
2023-04-21T15:08:16.211Z,87060.16
2023-04-21T15:10:46.935Z,87064.81
2023-04-21T15:13:14.921Z,87064.13
2023-04-21T15:15:42.644Z,87069.19
2023-04-21T15:18:09.966Z,87057.72
2023-04-21T15:20:44.706Z,87056.47
2023-04-21T15:23:13.606Z,87054.75
2023-04-21T15:25:41.537Z,87050.94
2023-04-21T15:28:08.922Z,87057.53
2023-04-21T15:30:36.313Z,87053.88
2023-04-21T15:33:04.409Z,87046.75
2023-04-21T15:35:31.743Z,87054.19
2023-04-21T15:37:59.064Z,87051.56
2023-04-21T15:40:26.478Z,87052.22
2023-04-21T15:42:53.923Z,87037.03
2023-04-21T15:45:21.602Z,87047.38
2023-04-21T15:47:49.085Z,87046.56
2023-04-21T15:50:16.540Z,87044.44
2023-04-21T15:52:44.188Z,87050.63
2023-04-21T15:55:12.799Z,87055.19
2023-04-21T15:57:40.197Z,87049.94
2023-04-21T16:00:08.440Z,87058.53
2023-04-21T16:02:36.459Z,87056.91
2023-04-21T16:05:04.748Z,87060.16
2023-04-21T16:07:32.663Z,87053.09
2023-04-21T16:10:00.002Z,87050.59
2023-04-21T16:12:27.471Z,87048.53
2023-04-21T16:14:59.670Z,87041.94
2023-04-21T16:17:34.752Z,87045.44
2023-04-21T16:20:02.970Z,87044.59
2023-04-21T16:22:30.496Z,87048.88
2023-04-21T16:24:57.928Z,87047.28
2023-04-21T16:27:25.319Z,87051.53
2023-04-21T16:29:52.531Z,87046.31
2023-04-21T16:32:20.268Z,87048.84
2023-04-21T16:34:48.085Z,87041.19
2023-04-21T16:37:15.727Z,87051.22
2023-04-21T16:39:43.404Z,87054.38
2023-04-21T16:42:10.963Z,87063.56
2023-04-21T16:44:38.684Z,87061.50
2023-04-21T16:47:07.019Z,87058.38
2023-04-21T16:49:34.555Z,87065.69
2023-04-21T16:52:01.942Z,87064.06
2023-04-21T16:54:29.183Z,87062.72
2023-04-21T16:56:56.575Z,87062.81
2023-04-21T16:59:23.965Z,87076.94
2023-04-21T17:01:51.552Z,87070.94
2023-04-21T17:04:18.950Z,87077.03
2023-04-21T17:06:46.300Z,87073.28
2023-04-21T17:09:13.533Z,87074.81
2023-04-21T17:11:40.960Z,87062.75
2023-04-21T17:14:08.211Z,87071.53
2023-04-21T17:16:35.677Z,87068.13
2023-04-21T17:19:03.103Z,87068.94
2023-04-21T17:21:30.491Z,87068.56
2023-04-21T17:23:58.088Z,87074.31
2023-04-21T17:26:25.654Z,87075.44
2023-04-21T17:28:53.278Z,87066.41
2023-04-21T17:31:20.629Z,87076.25
2023-04-21T17:33:48.188Z,87069.88
2023-04-21T17:36:15.408Z,87063.50
2023-04-21T17:38:42.881Z,87072.97
2023-04-21T17:41:10.437Z,87072.69
2023-04-21T17:43:37.969Z,87081.75
2023-04-21T17:46:06.753Z,87076.81
2023-04-21T17:48:34.277Z,87077.63
2023-04-21T17:51:01.801Z,87075.38
2023-04-21T17:53:29.120Z,87083.69
2023-04-21T17:55:57.113Z,87084.81
2023-04-21T17:58:26.308Z,87080.31
2023-04-21T18:00:53.802Z,87076.59
2023-04-21T18:03:21.432Z,87067.94
2023-04-21T18:05:49.826Z,87080.41
2023-04-21T18:08:17.313Z,87087.56
2023-04-21T18:10:44.635Z,87089.44
2023-04-21T18:13:11.837Z,87090.59
2023-04-21T18:15:39.650Z,87091.72
2023-04-21T18:18:06.935Z,87089.09
2023-04-21T18:20:34.899Z,87098.84
2023-04-21T18:23:02.994Z,87103.00
2023-04-21T18:25:41.266Z,87099.97
2023-04-21T18:28:09.139Z,87100.38
2023-04-21T18:30:36.592Z,87098.47
2023-04-21T18:33:04.132Z,87098.47
2023-04-21T18:35:32.924Z,87107.50
2023-04-21T18:38:00.493Z,87111.63
2023-04-21T18:40:28.018Z,87108.22
2023-04-21T18:42:55.308Z,87117.25
2023-04-21T18:45:22.637Z,87118.34
2023-04-21T18:47:49.899Z,87122.88
2023-04-21T18:50:17.271Z,87130.72
2023-04-21T18:52:44.930Z,87133.69
2023-04-21T18:55:38.830Z,87132.16
2023-04-21T18:58:08.903Z,87137.00
2023-04-21T19:00:36.270Z,87130.22
2023-04-21T19:03:05.540Z,87133.22
2023-04-21T19:05:33.203Z,87133.16
2023-04-21T19:08:01.094Z,87139.50
2023-04-21T19:10:28.720Z,87142.47
2023-04-21T19:12:56.113Z,87148.44
2023-04-21T19:15:23.490Z,87145.44
2023-04-21T19:17:50.702Z,87145.38
2023-04-21T19:20:18.818Z,87151.41
2023-04-21T19:22:46.187Z,87152.88
2023-04-21T19:25:13.636Z,87153.56
2023-04-21T19:27:41.814Z,87155.81
2023-04-21T19:30:09.974Z,87161.72
2023-04-21T19:32:37.322Z,87170.25
2023-04-21T19:35:05.424Z,87179.22
2023-04-21T19:37:35.026Z,87171.72
2023-04-21T19:40:03.975Z,87178.06
2023-04-21T19:42:31.426Z,87175.06
2023-04-21T19:44:58.877Z,87175.75
2023-04-21T19:47:26.176Z,87172.75
2023-04-21T19:49:53.725Z,87179.53
2023-04-21T19:52:21.247Z,87175.00
2023-04-21T19:54:48.447Z,87169.38
2023-04-21T19:57:15.769Z,87171.66
2023-04-21T19:59:43.142Z,87174.28
2023-04-21T20:02:10.550Z,87173.91
2023-04-21T20:04:38.262Z,87174.72
2023-04-21T20:07:05.758Z,87171.72
2023-04-21T20:09:33.014Z,87171.00
2023-04-21T20:12:00.480Z,87172.88
2023-04-21T20:14:28.794Z,87169.16
2023-04-21T20:16:56.785Z,87163.47
2023-04-21T20:19:24.100Z,87162.75
2023-04-21T20:21:51.768Z,87168.00
2023-04-21T20:24:21.928Z,87165.75
2023-04-21T20:26:50.726Z,87160.88
2023-04-21T20:29:18.450Z,87166.47
2023-04-21T20:31:46.049Z,87159.34
2023-04-21T20:34:13.874Z,87157.06
2023-04-21T20:36:41.291Z,87160.41
2023-04-21T20:39:08.585Z,87161.16
2023-04-21T20:41:35.882Z,87155.50
2023-04-21T20:44:03.127Z,87159.22
2023-04-21T20:46:30.459Z,87157.69
2023-04-21T20:48:57.818Z,87159.88
2023-04-21T20:51:25.093Z,87159.44
2023-04-21T20:53:52.381Z,87158.25
2023-04-21T20:56:20.083Z,87161.16
2023-04-21T20:58:47.343Z,87166.03
2023-04-21T21:01:14.856Z,87159.22
2023-04-21T21:03:42.416Z,87165.16
2023-04-21T21:06:10.332Z,87161.00
2023-04-21T21:08:37.810Z,87159.44
2023-04-21T21:11:05.612Z,87170.59
2023-04-21T21:13:32.829Z,87171.72
2023-04-21T21:16:00.241Z,87175.44
2023-04-21T21:18:27.644Z,87176.53
2023-04-21T21:20:54.860Z,87174.59
2023-04-21T21:23:22.316Z,87178.66
2023-04-21T21:25:50.916Z,87169.22
2023-04-21T21:28:19.195Z,87174.03
2023-04-21T21:30:46.454Z,87181.50
2023-04-21T21:33:13.919Z,87179.25
2023-04-21T21:35:41.300Z,87172.06
2023-04-21T21:38:09.186Z,87170.19
2023-04-21T21:40:36.458Z,87173.22
2023-04-21T21:43:04.078Z,87169.81
2023-04-21T21:45:31.614Z,87169.81
2023-04-21T21:47:59.138Z,87172.72
2023-04-21T21:50:26.412Z,87179.13
2023-04-21T21:52:53.722Z,87177.63
2023-04-21T21:55:21.051Z,87172.81
2023-04-21T21:57:48.349Z,87184.41
2023-04-21T22:00:16.294Z,87182.47
2023-04-21T22:02:43.857Z,87185.47
2023-04-21T22:05:11.279Z,87179.47
2023-04-21T22:07:38.596Z,87186.22
2023-04-21T22:10:06.572Z,87184.00
2023-04-21T22:12:33.910Z,87180.25
2023-04-21T22:15:01.312Z,87179.13
2023-04-21T22:17:28.890Z,87180.22
2023-04-21T22:19:56.087Z,87188.78
2023-04-21T22:22:23.348Z,87186.94
2023-04-21T22:24:50.593Z,87187.69
2023-04-21T22:27:17.937Z,87185.78
2023-04-21T22:29:45.326Z,87179.44
2023-04-21T22:32:12.725Z,87187.63
2023-04-21T22:34:40.106Z,87187.59
2023-04-21T22:37:07.348Z,87189.13
2023-04-21T22:39:34.600Z,87185.69
2023-04-21T22:42:01.808Z,87182.25
2023-04-21T22:44:29.163Z,87191.25
2023-04-21T22:46:56.532Z,87181.47
2023-04-21T22:49:23.744Z,87190.13
2023-04-21T22:51:50.977Z,87190.09
2023-04-21T22:54:18.314Z,87195.72
2023-04-21T22:56:45.562Z,87196.91
2023-04-21T22:59:12.851Z,87197.19
2023-04-21T23:01:40.467Z,87203.13
2023-04-21T23:04:07.970Z,87200.09
2023-04-21T23:06:35.371Z,87198.97
2023-04-21T23:09:02.658Z,87192.22
2023-04-21T23:11:29.929Z,87197.50
2023-04-21T23:13:57.464Z,87195.28
2023-04-21T23:16:24.882Z,87201.66
2023-04-21T23:18:52.223Z,87208.78
2023-04-21T23:21:19.525Z,87207.69
2023-04-21T23:23:46.812Z,87208.84
2023-04-21T23:26:14.178Z,87205.09
2023-04-21T23:28:41.591Z,87216.75
2023-04-21T23:31:08.855Z,87206.63
2023-04-21T23:33:36.284Z,87214.09
2023-04-21T23:36:03.632Z,87202.88
2023-04-21T23:38:30.922Z,87204.38
2023-04-21T23:40:58.267Z,87194.22
2023-04-21T23:43:25.916Z,87198.34
2023-04-21T23:45:53.255Z,87199.84
2023-04-21T23:48:20.446Z,87190.53
2023-04-21T23:50:48.043Z,87194.31
2023-04-21T23:53:15.348Z,87198.84
2023-04-21T23:55:42.648Z,87199.25
2023-04-21T23:58:10.286Z,87192.88
